Time;durP1;ratioP1;P1;durP2;ratioP2;P2;SDS_P1;SDS_P2;PMS_P1;PMS_P2;Temp;Humidity;BMP_temperature;BMP_pressure;BME280_temperature;BME280_humidity;BME280_pressure;Samples;Min_cycle;Max_cycle;Signal;HPM_P1;HPM_P2
2022/04/16 00:00:00;;;;;;;16.77;10.63;;;7.70;1.00;;;;;;4976364;28;20024;-81
2022/04/16 00:02:27;;;;;;;18.80;10.27;;;7.70;1.00;;;;;;4976083;28;20019;-81
2022/04/16 00:04:52;;;;;;;17.90;10.65;;;7.80;1.00;;;;;;4977245;28;20095;-82
2022/04/16 00:07:18;;;;;;;15.52;9.85;;;7.80;1.00;;;;;;4975577;28;20019;-82
2022/04/16 00:09:43;;;;;;;17.13;10.15;;;7.80;1.00;;;;;;4977062;28;20077;-81
2022/04/16 00:12:09;;;;;;;20.02;10.95;;;7.80;1.00;;;;;;4975689;28;20027;-82
2022/04/16 00:14:36;;;;;;;17.00;10.30;;;7.80;1.00;;;;;;4976676;28;20134;-82
2022/04/16 00:17:01;;;;;;;16.85;10.65;;;7.80;1.00;;;;;;4976192;28;20042;-82
2022/04/16 00:19:27;;;;;;;16.92;10.27;;;7.80;1.00;;;;;;4975547;28;20031;-82
2022/04/16 00:21:53;;;;;;;18.60;10.27;;;7.80;1.00;;;;;;4975773;28;20031;-82
2022/04/16 00:24:18;;;;;;;16.83;9.68;;;7.90;1.00;;;;;;4975791;28;20011;-82
2022/04/16 00:26:46;;;;;;;16.55;10.27;;;7.90;1.00;;;;;;4984118;28;20101;-83
2022/04/16 00:29:15;;;;;;;18.25;10.57;;;7.90;1.00;;;;;;4995674;28;20014;-82
2022/04/16 00:31:43;;;;;;;16.17;10.68;;;7.90;1.00;;;;;;4995326;28;20022;-82
2022/04/16 00:34:08;;;;;;;17.08;10.23;;;7.90;1.00;;;;;;4995174;28;20022;-81
2022/04/16 00:36:34;;;;;;;18.40;10.80;;;7.90;1.00;;;;;;4994568;28;20035;-82
2022/04/16 00:39:00;;;;;;;15.55;9.27;;;7.90;1.00;;;;;;4992111;28;20038;-82
2022/04/16 00:41:25;;;;;;;18.67;10.55;;;8.00;1.00;;;;;;4974960;28;20030;-82
2022/04/16 00:43:52;;;;;;;20.60;9.93;;;8.00;1.00;;;;;;4967156;28;20026;-82
2022/04/16 00:46:18;;;;;;;13.80;9.70;;;7.90;1.00;;;;;;4959259;28;20050;-82
2022/04/16 00:48:44;;;;;;;14.65;9.77;;;7.90;1.00;;;;;;4973927;28;20027;-82
2022/04/16 00:51:10;;;;;;;14.75;9.63;;;8.00;1.00;;;;;;4974895;28;20498;-82
2022/04/16 00:53:35;;;;;;;18.42;10.60;;;8.00;1.00;;;;;;4975262;28;20033;-82
2022/04/16 00:56:06;;;;;;;16.38;9.85;;;8.00;1.00;;;;;;4973660;28;20085;-82
2022/04/16 00:58:31;;;;;;;;;;;8.00;1.00;;;;;;4975644;28;20129;-82
2022/04/16 01:00:57;;;;;;;18.10;10.32;;;8.00;1.00;;;;;;4974874;28;19992;-82
2022/04/16 01:03:22;;;;;;;16.08;9.73;;;8.00;1.00;;;;;;4991703;28;20026;-82
2022/04/16 01:05:48;;;;;;;18.23;10.15;;;8.00;1.00;;;;;;4988332;28;20023;-82
2022/04/16 01:08:18;;;;;;;15.00;9.80;;;8.00;1.00;;;;;;4974735;28;20030;-82
2022/04/16 01:10:43;;;;;;;17.47;10.03;;;8.00;1.00;;;;;;4967236;28;20023;-82
2022/04/16 01:13:09;;;;;;;16.63;9.90;;;8.10;1.00;;;;;;5005159;23;20309;-82
2022/04/16 01:15:35;;;;;;;16.90;9.52;;;8.00;1.00;;;;;;5035092;28;20025;-82
2022/04/16 01:18:03;;;;;;;16.55;9.55;;;8.10;1.00;;;;;;5034182;28;20033;-82
2022/04/16 01:20:33;;;;;;;17.38;9.48;;;8.10;1.00;;;;;;5032508;28;21905;-82
2022/04/16 01:22:59;;;;;;;;;;;8.00;1.00;;;;;;5014021;28;20080;-82
2022/04/16 01:25:27;;;;;;;16.95;10.10;;;8.00;1.00;;;;;;5020499;28;19976;-82
2022/04/16 01:27:53;;;;;;;18.10;9.68;;;8.10;1.00;;;;;;5017593;28;20026;-82
2022/04/16 01:30:21;;;;;;;16.95;10.60;;;8.10;1.00;;;;;;5035179;28;20028;-82
2022/04/16 01:32:48;;;;;;;15.73;10.48;;;8.10;1.00;;;;;;5035029;28;20372;-82
2022/04/16 01:35:17;;;;;;;17.60;10.55;;;8.10;1.00;;;;;;5033773;28;20184;-82
2022/04/16 01:37:43;;;;;;;23.60;12.40;;;8.10;1.00;;;;;;5035076;28;20035;-82
2022/04/16 01:40:11;;;;;;;15.77;9.85;;;8.10;1.00;;;;;;5035347;28;20018;-82
2022/04/16 01:42:38;;;;;;;18.20;10.20;;;8.10;1.00;;;;;;5034712;28;20477;-82
2022/04/16 01:45:05;;;;;;;16.25;10.07;;;8.10;1.00;;;;;;5034593;28;20393;-82
2022/04/16 01:47:33;;;;;;;15.90;9.50;;;8.10;1.00;;;;;;5034204;28;20112;-83
2022/04/16 01:49:59;;;;;;;18.25;10.05;;;8.10;1.00;;;;;;5014823;28;20022;-82
2022/04/16 01:52:26;;;;;;;18.85;10.20;;;8.10;1.00;;;;;;5014655;28;20026;-82
2022/04/16 01:54:52;;;;;;;15.45;9.38;;;8.10;1.00;;;;;;5015119;28;20113;-82
2022/04/16 01:57:19;;;;;;;14.95;9.82;;;8.10;1.00;;;;;;5037084;28;20030;-83
2022/04/16 01:59:48;;;;;;;13.82;9.32;;;8.10;1.00;;;;;;5050545;28;20013;-83
2022/04/16 02:02:14;;;;;;;14.90;9.52;;;8.10;1.00;;;;;;5048373;28;20037;-83
2022/04/16 02:04:40;;;;;;;16.60;10.40;;;8.10;1.00;;;;;;5044970;28;20045;-83
2022/04/16 02:07:06;;;;;;;15.10;9.25;;;8.10;1.00;;;;;;5052515;28;20033;-83
2022/04/16 02:09:31;;;;;;;17.50;9.45;;;8.10;1.00;;;;;;5048219;28;20014;-83
2022/04/16 02:11:57;;;;;;;16.98;10.35;;;8.10;1.00;;;;;;5043186;28;20045;-83
2022/04/16 02:14:23;;;;;;;17.70;11.02;;;8.10;1.00;;;;;;5053219;28;20044;-83
2022/04/16 02:16:48;;;;;;;13.07;9.18;;;8.10;1.00;;;;;;5056494;28;20040;-82
2022/04/16 02:19:14;;;;;;;15.00;9.85;;;8.10;25.60;;;;;;5056313;28;20033;-83
2022/04/16 02:21:41;;;;;;;14.45;9.43;;;8.10;11.50;;;;;;5056255;28;20100;-83
2022/04/16 02:24:07;;;;;;;18.33;9.70;;;8.10;7.20;;;;;;5058724;28;20072;-83
2022/04/16 02:26:35;;;;;;;18.83;9.88;;;8.10;5.80;;;;;;5055927;28;20032;-83
2022/04/16 02:29:00;;;;;;;15.98;9.80;;;8.10;1.50;;;;;;5052386;28;20018;-83
2022/04/16 02:31:26;;;;;;;16.95;10.23;;;8.00;6.90;;;;;;5060366;28;20039;-84
2022/04/16 02:33:55;;;;;;;16.48;10.07;;;8.00;14.90;;;;;;5060648;28;20063;-83
2022/04/16 02:36:25;;;;;;;14.25;9.10;;;8.00;8.50;;;;;;5053623;28;20025;-84
2022/04/16 02:38:54;;;;;;;19.20;9.85;;;8.00;6.50;;;;;;5060480;28;20013;-84
2022/04/16 02:41:23;;;;;;;14.73;9.20;;;8.00;5.90;;;;;;5059582;28;20026;-84
2022/04/16 02:43:48;;;;;;;17.40;9.50;;;8.00;7.00;;;;;;5060422;28;20018;-84
2022/04/16 02:48:58;;;;;;;17.65;10.13;;;8.00;18.40;;;;;;5060498;28;20040;-84
2022/04/16 02:51:24;;;;;;;17.40;10.15;;;8.00;25.70;;;;;;5059530;28;20317;-84
2022/04/16 02:53:50;;;;;;;17.35;8.80;;;8.00;28.00;;;;;;5058790;28;20044;-83
2022/04/16 02:56:16;;;;;;;16.23;10.30;;;8.00;21.80;;;;;;5059061;28;20639;-84
2022/04/16 02:58:42;;;;;;;15.23;9.25;;;8.00;37.40;;;;;;5059306;28;20022;-84
2022/04/16 03:01:07;;;;;;;17.08;10.70;;;8.10;40.00;;;;;;5060012;28;20044;-83
2022/04/16 03:03:33;;;;;;;14.30;8.85;;;8.00;58.30;;;;;;5059100;28;20021;-84
2022/04/16 03:05:59;;;;;;;18.50;10.13;;;8.10;37.30;;;;;;5059738;28;20028;-84
2022/04/16 03:08:25;;;;;;;15.85;10.10;;;8.10;41.70;;;;;;5059869;28;20032;-84
2022/04/16 03:10:52;;;;;;;16.00;10.60;;;8.10;41.90;;;;;;5059639;28;20013;-84
2022/04/16 03:13:18;;;;;;;16.05;10.35;;;8.10;52.70;;;;;;5058996;28;20101;-84
2022/04/16 03:18:29;;;;;;;21.27;12.60;;;8.10;79.70;;;;;;5059418;28;20036;-84
2022/04/16 03:20:54;;;;;;;23.25;12.20;;;8.10;86.50;;;;;;5059145;28;20060;-83
2022/04/16 03:23:20;;;;;;;22.42;11.85;;;8.10;77.20;;;;;;5058229;28;20033;-84
2022/04/16 03:25:48;;;;;;;23.98;13.48;;;8.10;73.40;;;;;;5058390;28;20040;-84
2022/04/16 03:28:14;;;;;;;19.67;11.00;;;8.10;77.50;;;;;;5058317;28;20081;-84
2022/04/16 03:30:40;;;;;;;20.90;12.88;;;8.10;72.20;;;;;;5059071;28;20013;-84
2022/04/16 03:33:06;;;;;;;22.30;13.20;;;8.10;88.90;;;;;;5058297;28;20029;-84
2022/04/16 03:35:32;;;;;;;22.52;13.50;;;8.10;92.70;;;;;;5057479;28;20068;-84
2022/04/16 03:37:58;;;;;;;23.02;13.20;;;8.10;98.00;;;;;;5059067;28;20029;-84
2022/04/16 03:40:26;;;;;;;20.52;12.20;;;8.10;97.10;;;;;;5057581;28;20014;-84
2022/04/16 03:42:53;;;;;;;22.77;13.02;;;8.10;99.90;;;;;;5057790;28;20022;-84
2022/04/16 03:45:23;;;;;;;19.10;12.05;;;8.10;99.90;;;;;;5058381;28;20041;-84
2022/04/16 03:47:53;;;;;;;23.60;13.32;;;8.00;99.90;;;;;;5058410;28;20064;-84
2022/04/16 03:50:20;;;;;;;20.90;12.55;;;8.00;99.90;;;;;;5057344;28;20025;-84
2022/04/16 03:52:47;;;;;;;27.23;13.63;;;8.00;99.90;;;;;;5057884;28;20109;-84
2022/04/16 04:00:44;;;;;;;27.83;14.55;;;8.00;99.90;;;;;;5057975;28;20153;-84
2022/04/16 04:03:11;;;;;;;22.85;14.00;;;8.00;99.90;;;;;;5057858;28;20085;-84
2022/04/16 04:05:40;;;;;;;24.17;13.40;;;8.00;99.90;;;;;;5057693;28;20085;-84
2022/04/16 04:08:07;;;;;;;24.80;14.10;;;8.00;99.90;;;;;;5048713;28;20009;-84
2022/04/16 04:10:34;;;;;;;23.73;13.82;;;8.00;99.90;;;;;;5057507;28;20010;-84
2022/04/16 04:13:00;;;;;;;22.50;12.55;;;8.00;99.90;;;;;;5058040;28;20041;-84
2022/04/16 04:15:27;;;;;;;23.48;14.07;;;8.00;99.90;;;;;;5058237;28;20045;-83
2022/04/16 04:17:53;;;;;;;23.63;14.43;;;8.00;99.90;;;;;;5057734;28;20009;-84
2022/04/16 04:20:18;;;;;;;26.55;13.63;;;7.90;99.90;;;;;;5069871;28;20101;-84
2022/04/16 04:22:44;;;;;;;25.05;14.15;;;7.90;99.90;;;;;;5053901;28;20005;-84
2022/04/16 04:25:09;;;;;;;25.63;14.77;;;7.90;99.90;;;;;;5057938;28;20013;-84
2022/04/16 04:27:35;;;;;;;24.35;13.88;;;7.90;99.90;;;;;;5058274;28;20089;-84
2022/04/16 04:30:01;;;;;;;26.45;13.70;;;7.90;99.90;;;;;;5057252;28;20009;-84
2022/04/16 04:32:28;;;;;;;23.70;14.65;;;7.90;99.90;;;;;;5057181;28;20014;-84
2022/04/16 04:34:53;;;;;;;27.90;16.02;;;7.90;99.90;;;;;;5057451;28;20029;-84
2022/04/16 04:37:19;;;;;;;25.25;14.35;;;7.90;99.90;;;;;;5056604;28;20036;-84
2022/04/16 04:39:44;;;;;;;31.50;16.08;;;7.80;99.90;;;;;;5056791;28;20040;-84
2022/04/16 04:42:10;;;;;;;28.38;15.35;;;7.90;99.90;;;;;;5057170;28;20044;-84
2022/04/16 04:44:36;;;;;;;27.05;15.20;;;7.80;99.90;;;;;;5057151;28;20025;-84
2022/04/16 04:47:02;;;;;;;28.48;14.73;;;7.80;99.90;;;;;;5056737;28;20013;-83
2022/04/16 04:49:27;;;;;;;28.40;15.57;;;7.80;99.90;;;;;;5058280;28;20022;-84
2022/04/16 04:51:53;;;;;;;29.33;15.55;;;7.80;99.90;;;;;;5056974;28;20022;-84
2022/04/16 04:54:19;;;;;;;26.08;15.07;;;7.80;99.90;;;;;;5057724;28;20013;-84
2022/04/16 04:56:44;;;;;;;30.90;15.23;;;7.80;99.90;;;;;;5057594;28;20060;-84
2022/04/16 04:59:10;;;;;;;29.65;16.40;;;7.70;99.90;;;;;;5057669;28;20035;-84
2022/04/16 05:01:36;;;;;;;25.38;16.20;;;7.70;99.90;;;;;;5057186;28;20036;-84
2022/04/16 05:04:02;;;;;;;28.45;15.70;;;7.60;99.90;;;;;;5073642;28;20034;-84
2022/04/16 05:06:27;;;;;;;23.92;14.65;;;7.70;99.90;;;;;;5056829;28;20336;-84
2022/04/16 05:08:53;;;;;;;27.17;16.35;;;7.70;99.90;;;;;;5053916;28;20010;-84
2022/04/16 05:11:19;;;;;;;31.73;15.90;;;7.60;99.90;;;;;;5053003;28;20048;-82
2022/04/16 05:13:44;;;;;;;27.17;15.50;;;7.60;99.90;;;;;;5052518;28;20054;-83
2022/04/16 05:16:12;;;;;;;30.02;16.48;;;7.50;99.90;;;;;;5054960;28;20045;-84
2022/04/16 05:18:38;;;;;;;27.65;15.80;;;7.50;99.90;;;;;;5053556;28;20001;-84
2022/04/16 05:21:04;;;;;;;26.23;14.48;;;7.40;99.90;;;;;;5056453;28;20052;-84
2022/04/16 05:23:30;;;;;;;26.85;15.50;;;7.30;99.90;;;;;;5056991;28;20040;-84
2022/04/16 05:25:55;;;;;;;24.75;13.85;;;7.10;99.90;;;;;;5057111;28;20036;-84
2022/04/16 05:28:21;;;;;;;27.27;15.07;;;7.00;99.90;;;;;;5052367;28;20061;-84
2022/04/16 05:30:54;;;;;;;26.05;15.93;;;6.90;99.90;;;;;;5048609;28;20040;-84
2022/04/16 05:36:06;;;;;;;22.50;13.25;;;6.80;99.90;;;;;;5056679;28;20345;-84
2022/04/16 05:38:32;;;;;;;29.60;17.25;;;6.80;99.90;;;;;;5056933;28;20081;-84
2022/04/16 05:40:58;;;;;;;26.77;15.65;;;6.70;99.90;;;;;;5056302;28;20013;-84
2022/04/16 05:43:23;;;;;;;30.15;16.25;;;6.80;99.90;;;;;;5056654;28;20044;-84
2022/04/16 05:45:49;;;;;;;28.45;15.07;;;6.90;99.90;;;;;;5056780;28;20018;-84
2022/04/16 05:48:14;;;;;;;26.73;14.82;;;7.00;99.90;;;;;;5056356;28;20041;-84
2022/04/16 05:50:41;;;;;;;29.48;15.63;;;7.20;99.90;;;;;;5056695;28;20017;-84
2022/04/16 05:53:09;;;;;;;27.48;16.05;;;7.30;99.90;;;;;;5056887;28;20025;-84
2022/04/16 05:55:35;;;;;;;34.08;17.15;;;7.50;99.90;;;;;;5056331;28;20215;-84
2022/04/16 05:58:01;;;;;;;30.45;16.33;;;7.40;99.90;;;;;;5055945;28;20014;-84
2022/04/16 06:00:28;;;;;;;30.20;16.08;;;7.60;99.90;;;;;;5055908;28;20056;-83
2022/04/16 06:02:55;;;;;;;29.25;17.10;;;7.80;99.90;;;;;;5072551;28;20022;-83
2022/04/16 06:05:22;;;;;;;28.45;15.68;;;8.00;99.90;;;;;;5055454;28;20022;-84
2022/04/16 06:07:47;;;;;;;32.97;16.63;;;8.10;99.90;;;;;;5052406;28;20077;-84
2022/04/16 06:10:13;;;;;;;32.67;18.40;;;8.30;98.60;;;;;;5055456;28;20030;-85
2022/04/16 06:12:41;;;;;;;36.60;19.45;;;8.40;91.10;;;;;;5054332;28;20025;-84
2022/04/16 06:15:07;;;;;;;34.30;17.77;;;8.60;81.90;;;;;;5054082;28;20266;-84
2022/04/16 06:17:34;;;;;;;30.52;15.75;;;8.70;58.70;;;;;;5054387;28;20018;-84
2022/04/16 06:19:59;;;;;;;31.27;16.50;;;8.70;68.10;;;;;;5053804;28;20022;-85
2022/04/16 06:22:25;;;;;;;32.63;17.30;;;8.80;41.20;;;;;;5052303;28;20031;-84
2022/04/16 06:24:50;;;;;;;32.58;16.88;;;8.70;53.80;;;;;;5049261;28;20029;-85
2022/04/16 06:27:16;;;;;;;35.90;20.13;;;8.90;42.90;;;;;;5049503;28;20026;-84
2022/04/16 06:29:42;;;;;;;34.30;19.10;;;8.70;46.70;;;;;;5054247;28;20024;-85
2022/04/16 06:32:08;;;;;;;19.30;10.35;;;8.60;60.70;;;;;;5054300;28;20037;-84
2022/04/16 06:34:33;;;;;;;33.45;18.75;;;9.00;16.80;;;;;;5051945;28;20029;-84
2022/04/16 06:36:59;;;;;;;37.80;17.35;;;8.70;29.30;;;;;;5052759;28;20021;-84
2022/04/16 06:39:25;;;;;;;33.17;19.30;;;8.80;40.50;;;;;;5053046;28;20227;-85
2022/04/16 06:41:51;;;;;;;33.80;18.65;;;8.80;24.50;;;;;;5053421;28;20034;-85
2022/04/16 06:44:17;;;;;;;28.92;16.20;;;8.80;31.60;;;;;;5039842;28;20082;-84
2022/04/16 06:46:42;;;;;;;31.08;16.42;;;9.00;17.40;;;;;;5037596;28;20022;-84
2022/04/16 06:49:08;;;;;;;34.30;19.50;;;9.10;1.00;;;;;;5052900;28;20093;-84
2022/04/16 06:51:34;;;;;;;33.75;17.65;;;8.90;1.00;;;;;;5054987;28;20046;-84
2022/04/16 06:53:59;;;;;;;29.65;15.88;;;9.00;1.00;;;;;;5054605;28;20032;-84
2022/04/16 06:56:25;;;;;;;31.45;18.63;;;8.90;1.00;;;;;;5053541;28;20033;-85
2022/04/16 06:58:51;;;;;;;29.40;15.85;;;9.00;1.00;;;;;;5053574;28;20017;-84
2022/04/16 07:01:16;;;;;;;30.52;16.02;;;8.90;1.00;;;;;;5047144;28;20047;-84
2022/04/16 07:03:42;;;;;;;27.40;14.95;;;9.20;1.00;;;;;;5040391;28;20026;-85
2022/04/16 07:06:07;;;;;;;23.45;14.40;;;9.10;1.00;;;;;;5044142;28;20037;-85
2022/04/16 07:08:33;;;;;;;27.98;14.52;;;9.10;1.00;;;;;;5041041;28;20032;-85
2022/04/16 07:10:59;;;;;;;27.27;15.65;;;9.10;1.00;;;;;;5041564;28;20033;-85
2022/04/16 07:13:24;;;;;;;25.60;15.00;;;9.10;1.00;;;;;;5042167;28;20064;-84
2022/04/16 07:15:51;;;;;;;24.08;15.32;;;9.00;1.00;;;;;;5029182;28;20037;-85
2022/04/16 07:18:16;;;;;;;25.40;15.15;;;9.10;1.00;;;;;;5057327;28;20037;-85
2022/04/16 07:20:45;;;;;;;21.83;12.00;;;9.50;1.00;;;;;;5057592;28;20036;-84
2022/04/16 07:23:10;;;;;;;18.88;11.60;;;9.70;1.00;;;;;;5057342;28;20047;-85
2022/04/16 07:25:36;;;;;;;22.73;13.38;;;9.40;1.00;;;;;;5057024;28;20064;-85
2022/04/16 07:28:02;;;;;;;20.17;10.95;;;10.00;99.90;;;;;;5055052;28;20029;-85
2022/04/16 07:30:27;;;;;;;22.60;12.45;;;10.10;99.90;;;;;;5056146;28;20040;-85
2022/04/16 07:32:53;;;;;;;20.70;12.07;;;10.60;99.90;;;;;;5056291;28;20009;-85
2022/04/16 07:35:19;;;;;;;20.55;11.70;;;10.40;99.90;;;;;;5053872;28;20022;-85
2022/04/16 07:37:46;;;;;;;25.70;14.23;;;10.10;99.90;;;;;;5049483;28;20053;-84
2022/04/16 07:40:12;;;;;;;20.67;11.93;;;10.30;99.90;;;;;;5057551;28;20239;-84
2022/04/16 07:42:38;;;;;;;18.13;11.85;;;12.20;99.90;;;;;;5046550;28;20029;-83
2022/04/16 07:45:05;;;;;;;18.45;10.85;;;15.30;99.90;;;;;;5045487;28;20053;-85
2022/04/16 07:47:30;;;;;;;18.23;11.07;;;17.60;99.90;;;;;;5043017;28;20060;-85
2022/04/16 07:49:56;;;;;;;17.73;10.68;;;16.30;99.90;;;;;;5037848;28;20030;-85
2022/04/16 07:52:24;;;;;;;19.25;12.65;;;15.20;99.90;;;;;;5032898;28;20026;-85
2022/04/16 07:54:53;;;;;;;14.38;9.05;;;15.60;99.90;;;;;;5029731;28;20017;-85
2022/04/16 07:57:18;;;;;;;16.48;9.52;;;17.80;99.90;;;;;;5032398;28;20091;-85
2022/04/16 07:59:44;;;;;;;14.38;10.13;;;21.90;99.90;;;;;;5037318;28;20489;-85
2022/04/16 08:02:10;;;;;;;14.45;9.73;;;19.30;99.90;;;;;;5041845;28;20061;-85
2022/04/16 08:04:35;;;;;;;16.02;9.32;;;17.30;99.90;;;;;;5040317;28;20050;-85
2022/04/16 08:07:01;;;;;;;18.05;9.95;;;17.10;99.90;;;;;;5039092;28;20033;-85
2022/04/16 08:09:26;;;;;;;14.40;9.00;;;16.70;99.90;;;;;;5040974;28;20029;-85
2022/04/16 08:11:52;;;;;;;13.88;8.65;;;20.40;99.90;;;;;;5044555;28;20021;-85
2022/04/16 08:14:18;;;;;;;12.27;9.05;;;22.00;99.90;;;;;;5055638;28;20064;-86
2022/04/16 08:16:43;;;;;;;14.05;8.80;;;19.70;99.90;;;;;;5057254;28;20029;-85
2022/04/16 08:19:09;;;;;;;13.50;8.45;;;20.40;99.90;;;;;;5057486;28;20028;-85
2022/04/16 08:21:34;;;;;;;13.30;8.98;;;22.30;99.90;;;;;;5055689;28;20029;-86
2022/04/16 08:24:13;;;;;;;11.88;7.53;;;23.00;99.90;;;;;;5050535;28;20112;-82
2022/04/16 08:26:40;;;;;;;12.68;8.73;;;23.80;99.90;;;;;;5042937;28;20029;-82
2022/04/16 08:29:07;;;;;;;12.32;8.77;;;25.20;99.90;;;;;;5026433;28;20084;-84
2022/04/16 08:31:33;;;;;;;14.93;9.23;;;22.20;99.90;;;;;;5018552;28;20021;-84
2022/04/16 08:33:59;;;;;;;12.25;8.68;;;22.30;99.90;;;;;;5028698;28;20463;-87
2022/04/16 08:36:26;;;;;;;11.30;8.93;;;21.30;99.90;;;;;;5057438;28;20049;-88
2022/04/16 08:38:51;;;;;;;13.55;8.80;;;23.70;99.90;;;;;;5049586;28;20014;-88
2022/04/16 08:41:17;;;;;;;11.73;8.48;;;25.60;99.90;;;;;;5057637;28;20017;-88
2022/04/16 08:43:44;;;;;;;13.05;7.60;;;26.80;99.90;;;;;;5055071;28;20022;-87
2022/04/16 08:46:10;;;;;;;12.80;9.38;;;24.20;99.90;;;;;;5057740;28;20049;-87
2022/04/16 08:48:36;;;;;;;11.70;8.25;;;23.70;99.90;;;;;;5052987;28;20033;-85
2022/04/16 08:51:03;;;;;;;11.93;8.48;;;21.30;99.90;;;;;;5054255;28;20036;-86
2022/04/16 08:53:28;;;;;;;10.00;7.85;;;21.30;99.90;;;;;;5045588;28;20030;-86
2022/04/16 08:55:54;;;;;;;10.57;8.70;;;24.00;99.90;;;;;;5035858;28;20056;-87
2022/04/16 08:58:20;;;;;;;11.35;8.52;;;21.40;99.90;;;;;;5038583;28;20075;-87
2022/04/16 09:00:46;;;;;;;11.30;8.27;;;21.60;99.90;;;;;;5040103;28;20045;-86
2022/04/16 09:03:12;;;;;;;10.02;7.25;;;23.30;99.90;;;;;;5031515;28;20030;-84
2022/04/16 09:05:38;;;;;;;11.75;8.43;;;23.00;99.90;;;;;;5031876;28;20037;-85
2022/04/16 09:08:04;;;;;;;10.25;8.10;;;21.50;99.90;;;;;;5034734;28;20397;-85
2022/04/16 09:10:31;;;;;;;11.95;8.50;;;22.60;99.90;;;;;;5039112;28;20104;-84
2022/04/16 09:12:59;;;;;;;11.27;8.15;;;23.40;99.90;;;;;;5046799;28;20054;-84
2022/04/16 09:15:26;;;;;;;12.35;8.63;;;24.40;99.90;;;;;;5039270;28;20029;-86
2022/04/16 09:18:05;;;;;;;10.43;8.00;;;22.90;99.90;;;;;;5037490;28;20026;-86
2022/04/16 09:20:35;;;;;;;10.75;7.68;;;24.80;99.90;;;;;;5036682;28;20033;-87
2022/04/16 09:23:22;;;;;;;8.48;7.28;;;22.10;99.90;;;;;;5056830;28;20077;-87
2022/04/16 09:25:48;;;;;;;9.70;7.25;;;22.90;99.90;;;;;;5056592;28;20029;-86
2022/04/16 09:28:16;;;;;;;9.32;7.90;;;24.10;99.90;;;;;;5056769;28;20033;-86
2022/04/16 09:30:50;;;;;;;10.25;7.63;;;22.80;99.90;;;;;;5055720;28;20040;-86
2022/04/16 09:33:16;;;;;;;10.68;7.07;;;24.30;99.90;;;;;;5055927;28;20030;-86
2022/04/16 09:35:41;;;;;;;9.02;7.05;;;23.40;99.90;;;;;;5056693;28;20052;-86
2022/04/16 09:38:07;;;;;;;10.68;7.80;;;25.80;99.90;;;;;;5056988;28;20017;-86
2022/04/16 09:40:36;;;;;;;9.35;6.90;;;27.40;99.90;;;;;;5057116;28;20048;-86
2022/04/16 09:43:06;;;;;;;9.48;7.35;;;26.80;99.90;;;;;;5056926;28;20013;-86
2022/04/16 09:45:33;;;;;;;10.90;7.60;;;24.80;99.90;;;;;;5056990;28;20021;-86
2022/04/16 09:47:59;;;;;;;10.60;7.68;;;24.30;99.90;;;;;;5056231;28;20017;-86
2022/04/16 09:50:32;;;;;;;10.27;7.00;;;25.50;99.90;;;;;;5056320;28;20024;-86
2022/04/16 09:53:03;;;;;;;7.88;6.38;;;24.90;99.90;;;;;;5056470;28;20028;-86
2022/04/16 09:55:29;;;;;;;8.35;6.40;;;25.00;99.90;;;;;;5056832;28;20029;-86
2022/04/16 09:57:59;;;;;;;9.23;6.53;;;22.20;99.90;;;;;;5056674;28;20020;-86
2022/04/16 10:00:26;;;;;;;9.23;6.68;;;24.50;99.90;;;;;;5051975;28;20017;-86
2022/04/16 10:02:53;;;;;;;9.13;7.25;;;24.40;99.90;;;;;;5043476;28;20052;-85
2022/04/16 10:05:23;;;;;;;8.00;5.95;;;23.70;99.90;;;;;;5036930;28;20055;-84
2022/04/16 10:07:50;;;;;;;7.30;6.28;;;22.40;99.90;;;;;;5035633;28;20461;-85
2022/04/16 10:10:23;;;;;;;8.38;6.10;;;25.90;99.90;;;;;;5044547;28;20037;-85
2022/04/16 10:13:05;;;;;;;7.32;5.82;;;22.20;99.90;;;;;;5048854;28;20057;-87
2022/04/16 10:15:51;;;;;;;7.47;5.82;;;23.20;99.90;;;;;;5040566;28;20021;-86
2022/04/16 10:18:17;;;;;;;6.38;5.50;;;21.80;99.90;;;;;;5048060;28;20347;-86
2022/04/16 10:20:56;;;;;;;9.80;6.75;;;23.00;99.90;;;;;;5044871;28;20021;-87
2022/04/16 10:23:32;;;;;;;10.52;5.70;;;22.10;99.90;;;;;;5046500;28;20021;-86
2022/04/16 10:26:03;;;;;;;6.55;5.43;;;23.70;99.90;;;;;;5050486;28;20029;-87
2022/04/16 10:28:35;;;;;;;7.72;5.53;;;22.70;99.90;;;;;;5042579;28;20577;-87
2022/04/16 10:31:01;;;;;;;9.80;6.00;;;22.20;99.90;;;;;;5034421;28;20033;-86
2022/04/16 10:33:28;;;;;;;5.70;4.40;;;23.00;99.90;;;;;;5036580;28;20026;-86
2022/04/16 10:36:03;;;;;;;6.32;4.68;;;24.00;99.90;;;;;;5038922;28;20231;-86
2022/04/16 10:38:40;;;;;;;6.43;5.28;;;21.70;99.90;;;;;;5030968;28;20396;-86
2022/04/16 10:41:14;;;;;;;8.23;5.70;;;21.80;99.90;;;;;;5030955;28;20048;-86
2022/04/16 10:43:40;;;;;;;6.57;4.70;;;24.30;99.90;;;;;;5027183;28;20520;-86
2022/04/16 10:46:10;;;;;;;7.63;5.30;;;20.60;99.90;;;;;;5026039;28;20030;-86
2022/04/16 10:48:37;;;;;;;7.55;4.95;;;21.80;99.90;;;;;;5018937;28;20041;-86
2022/04/16 10:51:05;;;;;;;6.70;5.57;;;21.70;99.90;;;;;;5021862;28;20036;-86
2022/04/16 10:53:36;;;;;;;8.13;6.45;;;22.70;99.90;;;;;;5026672;28;20024;-86
2022/04/16 10:56:13;;;;;;;7.70;5.30;;;19.30;99.90;;;;;;5027433;28;20435;-86
2022/04/16 10:58:40;;;;;;;7.65;5.95;;;21.90;99.90;;;;;;5023147;28;20654;-86
2022/04/16 11:01:09;;;;;;;9.63;6.43;;;21.60;99.90;;;;;;5029495;28;20025;-85
2022/04/16 11:03:46;;;;;;;7.22;5.13;;;22.90;99.90;;;;;;5050577;28;20009;-85
2022/04/16 11:06:12;;;;;;;8.98;5.85;;;21.00;99.90;;;;;;5051442;28;20021;-85
2022/04/16 11:08:40;;;;;;;9.57;5.70;;;20.20;99.90;;;;;;5052647;28;20036;-85
2022/04/16 11:11:06;;;;;;;5.43;4.22;;;18.90;99.90;;;;;;5055582;28;20013;-85
2022/04/16 11:13:33;;;;;;;4.07;3.35;;;18.50;99.90;;;;;;5054033;28;20053;-85
2022/04/16 11:15:59;;;;;;;4.05;3.20;;;18.50;99.90;;;;;;5054460;28;20034;-84
2022/04/16 11:18:26;;;;;;;4.35;3.53;;;17.60;99.90;;;;;;5030065;28;20048;-84
2022/04/16 11:20:57;;;;;;;6.05;3.53;;;16.40;99.90;;;;;;5041993;28;20036;-84
2022/04/16 11:23:27;;;;;;;4.60;3.58;;;17.10;99.90;;;;;;5051575;28;20022;-85
2022/04/16 11:34:17;;;;;;;3.53;2.60;;;17.20;99.90;;;;;;5052880;28;20063;-86
2022/04/16 11:36:50;;;;;;;2.63;2.00;;;16.00;99.90;;;;;;5055641;28;20025;-84
2022/04/16 11:39:23;;;;;;;2.08;1.80;;;16.60;99.90;;;;;;5041115;28;20033;-85
2022/04/16 11:41:54;;;;;;;2.60;1.88;;;16.80;99.90;;;;;;5039672;28;20021;-85
2022/04/16 11:44:40;;;;;;;1.65;1.52;;;16.50;99.90;;;;;;5047361;28;20018;-85
2022/04/16 11:47:10;;;;;;;2.65;1.88;;;16.50;99.90;;;;;;5048248;28;20089;-85
2022/04/16 11:49:37;;;;;;;1.90;1.70;;;16.40;99.90;;;;;;5052391;28;20056;-85
2022/04/16 11:52:04;;;;;;;2.20;1.88;;;16.60;99.90;;;;;;5052358;28;20258;-85
2022/04/16 11:54:30;;;;;;;2.75;2.05;;;16.80;99.90;;;;;;5051212;28;20032;-85
2022/04/16 11:56:57;;;;;;;2.88;2.10;;;16.60;99.90;;;;;;5050319;28;20026;-85
2022/04/16 11:59:26;;;;;;;3.03;2.13;;;16.50;99.90;;;;;;5053507;28;20043;-85
2022/04/16 12:02:07;;;;;;;1.90;1.67;;;17.00;99.90;;;;;;5051869;28;20048;-84
2022/04/16 12:04:39;;;;;;;;;;;17.70;99.90;;;;;;5053027;28;20125;-85
2022/04/16 12:07:16;;;;;;;1.90;1.70;;;17.00;99.90;;;;;;5049959;28;19973;-85
2022/04/16 12:09:49;;;;;;;2.83;1.88;;;16.10;99.90;;;;;;5050875;28;20052;-85
2022/04/16 12:12:21;;;;;;;1.88;1.65;;;16.20;99.90;;;;;;5054793;28;20022;-85
2022/04/16 12:14:49;;;;;;;4.07;2.10;;;16.70;99.90;;;;;;5052996;28;20038;-85
2022/04/16 12:17:31;;;;;;;2.35;1.67;;;15.50;99.90;;;;;;5052581;28;20064;-85
2022/04/16 12:20:08;;;;;;;5.18;1.48;;;16.20;99.90;;;;;;5054068;28;20021;-85
2022/04/16 12:22:48;;;;;;;2.22;1.75;;;16.60;99.90;;;;;;5051785;28;20089;-85
2022/04/16 12:25:16;;;;;;;2.63;1.70;;;16.40;99.90;;;;;;5049940;28;20133;-85
2022/04/16 12:27:56;;;;;;;1.83;1.65;;;16.30;99.90;;;;;;5050688;28;20032;-85
2022/04/16 12:30:25;;;;;;;1.80;1.60;;;16.60;99.90;;;;;;5051908;28;20060;-85
2022/04/16 12:32:59;;;;;;;3.92;1.33;;;16.60;99.90;;;;;;5051936;28;20034;-85
2022/04/16 12:35:29;;;;;;;2.30;1.90;;;16.30;99.90;;;;;;5053221;28;20021;-85
2022/04/16 12:37:55;;;;;;;2.45;1.70;;;15.90;99.90;;;;;;5054081;28;20026;-85
2022/04/16 12:40:22;;;;;;;2.03;1.60;;;16.60;99.90;;;;;;5053357;28;20073;-85
2022/04/16 12:42:51;;;;;;;2.88;1.95;;;16.50;99.90;;;;;;5051991;28;20021;-85
2022/04/16 12:45:18;;;;;;;1.52;1.42;;;16.50;99.90;;;;;;5052135;28;20056;-85
2022/04/16 12:47:43;;;;;;;2.13;1.60;;;16.20;99.90;;;;;;5050118;28;20028;-86
2022/04/16 12:50:10;;;;;;;2.92;1.95;;;16.20;99.90;;;;;;5048506;28;20033;-85
2022/04/16 12:52:36;;;;;;;1.58;1.40;;;16.40;99.90;;;;;;5048883;28;20034;-85
2022/04/16 12:55:02;;;;;;;1.67;1.58;;;16.30;99.90;;;;;;5048448;28;20029;-83
2022/04/16 12:57:28;;;;;;;2.47;1.70;;;16.30;99.90;;;;;;5041256;28;20056;-84
2022/04/16 12:59:53;;;;;;;1.95;1.58;;;16.10;99.90;;;;;;5047269;28;20026;-84
2022/04/16 13:02:19;;;;;;;1.40;1.30;;;16.70;99.90;;;;;;5029218;28;20569;-85
2022/04/16 13:04:45;;;;;;;5.75;1.90;;;16.90;99.90;;;;;;5027192;28;20017;-85